Crowder, Oklahoma
Current Conditions -  °F | °C
As of 5:53 AM on Thursday 27 Nov 2014 (Local Time) from KMLC Reporting Station
Scattered Clouds Scattered Clouds  
Wind Chill: 26°   Ceiling: Unl
Heat Index: 32°   Visibility: 10mi
Dew Point: 24°   Wind: 6mph
Humidity: 73%   Direction: 340°NNW
Pressure: 30.52"   Gusts: NA
Location:  35.12°N, 95.67°W
Report Text: KMLC 271153Z AUTO 34005KT 10SM FEW100 SCT110 00/M04 A3052 RMK AO2 SLP336 T00001044 10044 20000 51013
Loading
Personal Weather Stations






























Interactive Weather Map New forecast layout! Learn more

10-Day Weather Forecast

Advertisements
Track Severe Weather on mobile